Terminal Aerodrome Forecast
Issued by NWS Hastings, NE

Home | Current Version | Previous Version | Text Only | Print | Product List | Glossary On
Versions: 1 2 3 4 5 6 7 8 9 10 11 12 13 14 15 16 17 18 19 20 21 22 23 24 25 26
000
FTUS43 KGID 162320
TAFGRI
TAF
KGRI 162320Z 1700/1724 16007KT P6SM OVC035
     FM170300 17006KT P6SM SCT150
     FM171000 17003KT 5SM BR SCT150
     FM171200 00000KT 4SM BR SCT150
     FM171500 11006KT P6SM BKN150=

USA.gov is the U.S. government's official web portal to all federal, state and local government web resources and services.